Terminal Aerodrome Forecast
Issued by NWS

Home | Current Version | Previous Version | Text Only | Print | Product List | Glossary On
Versions: 1 2 3 4 5 6 7 8 9 10 11 12 13 14 15 16 17 18 19 20 21 22 23 24 25 26 27 28 29 30 31 32
121
FTUS45 KGJT 261939 AAA
TAFCNY
TAF AMD
KCNY 261939Z 2620/2718 32010G15KT P6SM VCTS SCT110CB BKN200
     FM270100 33008KT P6SM BKN250
     FM270800 28004KT P6SM SCT250=

USA.gov is the U.S. government's official web portal to all federal, state and local government web resources and services.